createdAt,value
2017-07-24T00:01:24.406Z,66.60
2017-07-24T00:03:51.870Z,65.80
2017-07-24T00:06:20.188Z,65.20
2017-07-24T00:08:47.698Z,65.10
2017-07-24T00:11:15.161Z,65.60
2017-07-24T00:13:43.425Z,65.30
2017-07-24T00:16:10.936Z,65.30
2017-07-24T00:18:38.436Z,65.40
2017-07-24T00:21:05.890Z,65.20
2017-07-24T00:23:33.446Z,65.90
2017-07-24T00:26:00.911Z,66.10
2017-07-24T00:28:28.470Z,66.30
2017-07-24T00:30:56.031Z,66.20
2017-07-24T00:33:23.594Z,66.20
2017-07-24T00:35:51.155Z,66.60
2017-07-24T00:38:18.704Z,65.90
2017-07-24T00:40:46.271Z,65.80
2017-07-24T00:43:13.729Z,65.90
2017-07-24T00:45:41.999Z,67.00
2017-07-24T00:48:09.558Z,66.50
2017-07-24T00:50:37.119Z,67.00
2017-07-24T00:53:04.581Z,67.10
2017-07-24T00:55:32.838Z,68.00
2017-07-24T00:58:00.313Z,67.40
2017-07-24T01:00:28.555Z,68.10
2017-07-24T01:02:56.042Z,68.10
2017-07-24T01:05:24.315Z,68.50
2017-07-24T01:07:51.778Z,68.40
2017-07-24T01:10:20.239Z,69.10
2017-07-24T01:12:47.715Z,69.00
2017-07-24T01:15:15.983Z,69.10
2017-07-24T01:17:43.441Z,69.10
2017-07-24T01:20:11.692Z,69.30
2017-07-24T01:22:39.145Z,68.50
2017-07-24T01:25:06.609Z,68.90
2017-07-24T01:27:34.100Z,68.90
2017-07-24T01:30:02.344Z,69.20
2017-07-24T01:32:29.808Z,69.10
2017-07-24T01:34:57.284Z,69.20
2017-07-24T01:37:25.537Z,69.30
2017-07-24T01:39:53.103Z,69.30
2017-07-24T01:42:20.667Z,69.40
2017-07-24T01:44:48.147Z,69.40
2017-07-24T01:47:15.670Z,69.70
2017-07-24T01:49:43.238Z,70.20
2017-07-24T01:52:10.784Z,70.30
2017-07-24T01:54:38.249Z,70.00
2017-07-24T01:57:05.728Z,70.40
2017-07-24T01:59:33.963Z,70.30
2017-07-24T02:02:01.542Z,70.30
2017-07-24T02:04:30.051Z,70.10
2017-07-24T02:06:57.582Z,70.10
2017-07-24T02:09:25.139Z,70.20
2017-07-24T02:11:52.703Z,70.00
2017-07-24T02:14:20.974Z,70.20
2017-07-24T02:16:48.521Z,70.10
2017-07-24T02:19:16.285Z,70.20
2017-07-24T02:21:43.747Z,70.70
2017-07-24T02:24:11.311Z,71.00
2017-07-24T02:26:38.863Z,70.90
2017-07-24T02:29:06.422Z,70.80
2017-07-24T02:31:33.984Z,71.00
2017-07-24T02:34:01.539Z,71.10
2017-07-24T02:36:29.015Z,71.00
2017-07-24T02:38:57.271Z,71.50
2017-07-24T02:41:24.843Z,71.20
2017-07-24T02:43:53.115Z,70.90
2017-07-24T02:46:20.676Z,70.80
2017-07-24T02:48:48.226Z,71.10
2017-07-24T02:51:15.694Z,71.00
2017-07-24T02:53:43.951Z,71.40
2017-07-24T02:56:11.510Z,70.50
2017-07-24T02:58:38.975Z,70.60
2017-07-24T03:01:06.430Z,70.60
2017-07-24T03:03:33.902Z,70.50
2017-07-24T03:06:02.167Z,71.10
2017-07-24T03:08:29.733Z,71.10
2017-07-24T03:10:57.963Z,71.00
2017-07-24T03:13:25.449Z,70.90
2017-07-24T03:15:53.014Z,70.90
2017-07-24T03:18:20.576Z,71.00
2017-07-24T03:20:48.091Z,71.10
2017-07-24T03:23:15.579Z,71.20
2017-07-24T03:25:43.039Z,71.50
2017-07-24T03:28:10.603Z,71.90
2017-07-24T03:30:38.067Z,71.90
2017-07-24T03:33:05.613Z,72.00
2017-07-24T03:35:33.185Z,71.20
2017-07-24T03:38:01.430Z,72.00
2017-07-24T03:40:28.916Z,71.90
2017-07-24T03:42:57.146Z,71.80
2017-07-24T03:45:24.647Z,71.70
2017-07-24T03:47:52.874Z,71.20
2017-07-24T03:50:20.373Z,71.80
2017-07-24T03:52:47.845Z,71.80
2017-07-24T03:55:16.069Z,72.10
2017-07-24T03:57:43.550Z,72.00
2017-07-24T04:00:11.005Z,72.00
2017-07-24T04:02:38.470Z,72.00
2017-07-24T04:05:05.937Z,71.90
2017-07-24T04:07:34.210Z,72.80
2017-07-24T04:10:01.768Z,72.50
2017-07-24T04:12:29.321Z,71.80
2017-07-24T04:14:57.340Z,71.80
2017-07-24T04:17:24.862Z,72.00
2017-07-24T04:19:53.113Z,72.00
2017-07-24T04:22:20.569Z,71.90
2017-07-24T04:24:48.134Z,72.00
2017-07-24T04:27:15.688Z,71.90
2017-07-24T04:29:43.149Z,71.50
2017-07-24T04:32:10.722Z,71.60
2017-07-24T04:34:38.991Z,71.90
2017-07-24T04:37:07.259Z,70.70
2017-07-24T04:39:34.813Z,70.60
2017-07-24T04:42:02.373Z,70.20
2017-07-24T04:44:29.947Z,70.00
2017-07-24T04:46:58.192Z,69.70
2017-07-24T04:49:25.653Z,69.60
2017-07-24T04:51:53.129Z,69.70
2017-07-24T04:54:20.650Z,69.80
2017-07-24T04:56:48.135Z,69.60
2017-07-24T04:59:15.720Z,69.60
2017-07-24T05:01:43.973Z,69.20
2017-07-24T05:04:11.534Z,69.20
2017-07-24T05:06:39.087Z,68.90
2017-07-24T05:09:06.663Z,68.50
2017-07-24T05:11:35.035Z,67.90
2017-07-24T05:14:02.494Z,67.60
2017-07-24T05:16:30.718Z,67.60
2017-07-24T05:18:58.217Z,66.80
2017-07-24T05:21:25.682Z,66.60
2017-07-24T05:23:53.954Z,66.90
2017-07-24T05:26:21.414Z,66.00
2017-07-24T05:28:49.687Z,65.50
2017-07-24T05:31:17.137Z,65.50
2017-07-24T05:33:44.601Z,65.00
2017-07-24T05:36:12.826Z,64.30
2017-07-24T05:38:40.300Z,64.20
2017-07-24T05:41:07.769Z,64.40
2017-07-24T05:43:35.233Z,64.50
2017-07-24T05:46:02.782Z,63.50
2017-07-24T05:48:30.266Z,63.40
2017-07-24T05:50:57.819Z,63.60
2017-07-24T05:53:25.284Z,63.60
2017-07-24T05:55:53.522Z,64.30
2017-07-24T05:58:20.975Z,64.10
2017-07-24T06:00:48.447Z,63.90
2017-07-24T06:03:15.897Z,63.80
2017-07-24T06:05:43.474Z,62.50
2017-07-24T06:08:11.029Z,61.50
2017-07-24T06:10:38.585Z,61.50
2017-07-24T06:13:06.059Z,60.40
2017-07-24T06:15:34.328Z,61.40
2017-07-24T06:18:02.592Z,60.00
2017-07-24T06:20:30.062Z,60.50
2017-07-24T06:22:58.286Z,59.60
2017-07-24T06:25:25.791Z,59.80
2017-07-24T06:27:53.330Z,60.10
2017-07-24T06:30:20.894Z,59.70
2017-07-24T06:32:48.468Z,59.80
2017-07-24T06:35:15.921Z,59.30
2017-07-24T06:37:43.479Z,59.50
2017-07-24T06:40:11.046Z,59.20
2017-07-24T06:42:39.283Z,58.00
2017-07-24T06:45:06.767Z,57.90
2017-07-24T06:47:34.324Z,57.20
2017-07-24T06:50:01.911Z,57.90
2017-07-24T06:52:30.151Z,56.40
2017-07-24T06:54:57.733Z,56.20
2017-07-24T06:57:25.981Z,56.70
2017-07-24T06:59:53.457Z,56.70
2017-07-24T07:02:20.916Z,57.20
2017-07-24T07:04:49.169Z,57.50
2017-07-24T07:07:16.747Z,56.80
2017-07-24T07:09:44.973Z,57.00
2017-07-24T07:12:12.475Z,56.20
2017-07-24T07:14:39.942Z,57.40
2017-07-24T07:17:08.210Z,57.10
2017-07-24T07:19:35.679Z,57.00
2017-07-24T07:22:04.043Z,57.20
2017-07-24T07:24:31.600Z,57.20
2017-07-24T07:26:59.144Z,57.20
2017-07-24T07:29:26.605Z,57.30
2017-07-24T07:31:54.073Z,56.60
2017-07-24T07:34:21.617Z,56.20
2017-07-24T07:36:49.186Z,55.80
2017-07-24T07:39:16.659Z,56.40
2017-07-24T07:41:44.925Z,53.80
2017-07-24T07:44:13.166Z,54.80
2017-07-24T07:46:40.645Z,54.70
2017-07-24T07:49:08.104Z,54.20
2017-07-24T07:51:35.668Z,55.20
2017-07-24T07:54:03.906Z,53.00
2017-07-24T07:56:31.373Z,52.90
2017-07-24T07:58:58.839Z,52.60
2017-07-24T08:01:26.387Z,52.20
2017-07-24T08:03:53.864Z,51.60
2017-07-24T08:06:21.423Z,52.30
2017-07-24T08:08:48.877Z,51.20
2017-07-24T08:11:16.348Z,52.20
2017-07-24T08:13:44.584Z,51.20
2017-07-24T08:16:12.083Z,50.50
2017-07-24T08:18:40.313Z,49.30
2017-07-24T08:21:07.783Z,49.30
2017-07-24T08:23:35.254Z,50.80
2017-07-24T08:26:02.723Z,51.20
2017-07-24T08:28:31.042Z,51.00
2017-07-24T08:30:58.508Z,51.10
2017-07-24T08:33:25.996Z,49.30
2017-07-24T08:35:53.582Z,47.50
2017-07-24T08:38:21.806Z,48.20
2017-07-24T08:40:49.303Z,48.20
2017-07-24T08:43:16.772Z,48.10
2017-07-24T08:45:45.034Z,48.40
2017-07-24T08:48:12.488Z,48.40
2017-07-24T08:50:40.766Z,46.60
2017-07-24T08:53:08.305Z,46.60
2017-07-24T08:55:35.760Z,47.30
2017-07-24T08:58:03.212Z,48.20
2017-07-24T09:00:30.780Z,46.60
2017-07-24T09:02:58.342Z,45.10
2017-07-24T09:05:25.796Z,44.90
2017-07-24T09:07:53.358Z,45.30
2017-07-24T09:10:20.921Z,45.80
2017-07-24T09:12:56.301Z,44.10
2017-07-24T09:15:23.767Z,45.30
2017-07-24T09:17:51.270Z,45.70
2017-07-24T09:20:18.821Z,44.60
2017-07-24T09:22:46.286Z,42.40
2017-07-24T09:25:13.841Z,44.10
2017-07-24T09:27:41.297Z,45.50
2017-07-24T09:30:08.862Z,43.90
2017-07-24T09:32:36.413Z,43.90
2017-07-24T09:35:03.870Z,45.00
2017-07-24T09:37:31.330Z,44.90
2017-07-24T09:39:58.884Z,44.40
2017-07-24T09:42:26.340Z,45.50
2017-07-24T09:44:53.910Z,44.90
2017-07-24T09:47:21.472Z,44.40
2017-07-24T09:49:48.920Z,45.00
2017-07-24T09:52:16.482Z,42.90
2017-07-24T09:54:43.930Z,42.90
2017-07-24T09:57:11.408Z,44.40
2017-07-24T09:59:38.857Z,44.30
2017-07-24T10:02:06.413Z,43.80
2017-07-24T10:04:33.971Z,44.10
2017-07-24T10:07:01.513Z,44.00
2017-07-24T10:09:28.979Z,42.90
2017-07-24T10:11:56.537Z,41.00
2017-07-24T10:14:23.988Z,41.90
2017-07-24T10:16:51.440Z,39.10
2017-07-24T10:19:19.009Z,38.80
2017-07-24T10:21:46.487Z,37.50
2017-07-24T10:24:14.751Z,40.10
2017-07-24T10:26:42.200Z,39.60
2017-07-24T10:29:09.670Z,39.10
2017-07-24T10:31:37.928Z,42.20
2017-07-24T10:34:05.385Z,41.60
2017-07-24T10:36:32.946Z,40.60
2017-07-24T10:39:00.500Z,40.20
2017-07-24T10:41:28.062Z,39.60
2017-07-24T10:43:55.614Z,39.00
2017-07-24T10:46:23.064Z,39.20
2017-07-24T10:48:50.591Z,37.10
2017-07-24T10:51:18.098Z,39.40
2017-07-24T10:53:45.658Z,40.50
2017-07-24T10:56:13.211Z,38.60
2017-07-24T10:58:40.771Z,39.10
2017-07-24T11:01:08.320Z,40.20
2017-07-24T11:03:35.786Z,39.00
2017-07-24T11:06:03.345Z,36.80
2017-07-24T11:08:30.793Z,37.20
2017-07-24T11:10:58.363Z,39.10
2017-07-24T11:13:25.818Z,38.00
2017-07-24T11:15:53.374Z,38.50
2017-07-24T11:18:20.928Z,38.50
2017-07-24T11:20:48.388Z,38.20
2017-07-24T11:23:15.950Z,39.00
2017-07-24T11:25:43.413Z,37.10
2017-07-24T11:28:10.917Z,37.80
2017-07-24T11:30:38.366Z,39.20
2017-07-24T11:33:05.826Z,39.80
2017-07-24T11:35:33.326Z,39.10
2017-07-24T11:38:00.891Z,38.30
2017-07-24T11:40:28.436Z,37.20
2017-07-24T11:42:55.913Z,36.00
2017-07-24T11:45:24.151Z,35.00
2017-07-24T11:47:52.359Z,34.30
2017-07-24T11:50:19.812Z,35.40
2017-07-24T11:52:47.335Z,37.50
2017-07-24T11:55:14.826Z,37.30
2017-07-24T11:57:42.374Z,37.80
2017-07-24T12:00:09.829Z,37.20
2017-07-24T12:02:37.388Z,35.90
2017-07-24T12:05:04.844Z,36.50
2017-07-24T12:07:33.067Z,35.60
2017-07-24T12:10:00.534Z,34.50
2017-07-24T12:12:27.978Z,34.70
2017-07-24T12:14:55.442Z,35.90
2017-07-24T12:17:22.910Z,36.80
2017-07-24T12:19:50.411Z,34.30
2017-07-24T12:22:17.878Z,36.30
2017-07-24T12:24:45.435Z,36.10
2017-07-24T12:27:12.980Z,36.50
2017-07-24T12:29:40.447Z,35.60
2017-07-24T12:32:08.003Z,36.40
2017-07-24T12:34:35.549Z,35.90
2017-07-24T12:37:03.000Z,35.10
2017-07-24T12:39:30.479Z,36.00
2017-07-24T12:41:58.751Z,34.60
2017-07-24T12:44:26.205Z,34.60
2017-07-24T12:46:53.673Z,36.70
2017-07-24T12:49:21.130Z,35.80
2017-07-24T12:51:49.391Z,36.50
2017-07-24T12:54:16.941Z,36.50
2017-07-24T12:56:44.414Z,38.70
2017-07-24T12:59:12.017Z,35.20
2017-07-24T13:01:39.468Z,35.80
2017-07-24T13:04:06.972Z,34.70
2017-07-24T13:06:34.544Z,35.10
2017-07-24T13:09:02.085Z,36.10
2017-07-24T13:11:29.645Z,36.50
2017-07-24T13:13:57.102Z,36.50
2017-07-24T13:16:24.686Z,37.30
2017-07-24T13:18:52.914Z,37.00
2017-07-24T13:21:20.401Z,37.00
2017-07-24T13:23:47.866Z,37.60
2017-07-24T13:26:15.321Z,37.90
2017-07-24T13:28:42.874Z,37.20
2017-07-24T13:31:10.431Z,36.40
2017-07-24T13:33:37.981Z,36.90
2017-07-24T13:36:05.442Z,37.40
2017-07-24T13:38:32.897Z,37.10
2017-07-24T13:41:00.349Z,38.40
2017-07-24T13:43:27.917Z,37.00
2017-07-24T13:45:55.378Z,37.70
2017-07-24T13:48:22.836Z,36.10
2017-07-24T13:50:50.385Z,36.00
2017-07-24T13:53:18.334Z,35.80
2017-07-24T13:55:45.817Z,35.60
2017-07-24T13:58:13.374Z,35.40
2017-07-24T14:00:40.934Z,35.20
2017-07-24T14:03:08.386Z,35.50
2017-07-24T14:05:35.941Z,37.10
2017-07-24T14:08:03.389Z,37.20
2017-07-24T14:10:30.956Z,37.10
2017-07-24T14:12:58.517Z,36.20
2017-07-24T14:15:25.993Z,35.90
2017-07-24T14:17:54.245Z,34.50
2017-07-24T14:20:21.804Z,34.40
2017-07-24T14:22:49.374Z,33.70
2017-07-24T14:25:16.832Z,33.80
2017-07-24T14:27:44.383Z,35.80
2017-07-24T14:30:11.951Z,35.90
2017-07-24T14:32:40.202Z,35.70
2017-07-24T14:35:07.665Z,35.70
2017-07-24T14:37:35.224Z,35.30
2017-07-24T14:40:02.675Z,35.10
2017-07-24T14:42:30.141Z,35.70
2017-07-24T14:44:57.697Z,35.70
2017-07-24T14:47:25.256Z,36.30
2017-07-24T14:49:52.712Z,35.60
2017-07-24T14:52:20.286Z,36.10
2017-07-24T14:54:47.733Z,35.90
2017-07-24T14:57:15.296Z,36.20
2017-07-24T14:59:42.753Z,35.80
2017-07-24T15:02:10.226Z,35.70
2017-07-24T15:04:38.491Z,37.10
2017-07-24T15:07:05.947Z,37.10
2017-07-24T15:09:33.491Z,36.80
2017-07-24T15:12:00.944Z,36.50
2017-07-24T15:14:28.518Z,36.00
2017-07-24T15:16:56.074Z,36.60
2017-07-24T15:19:23.634Z,37.40
2017-07-24T15:21:51.181Z,37.70
2017-07-24T15:24:18.651Z,37.80
2017-07-24T15:26:46.213Z,38.00
2017-07-24T15:29:13.762Z,37.90
2017-07-24T15:31:41.222Z,39.10
2017-07-24T15:34:08.689Z,38.50
2017-07-24T15:36:36.956Z,38.80
2017-07-24T15:39:04.501Z,38.20
2017-07-24T15:41:31.955Z,39.10
2017-07-24T15:43:59.412Z,40.20
2017-07-24T15:46:26.988Z,39.60
2017-07-24T15:48:54.448Z,38.90
2017-07-24T15:51:22.715Z,40.00
2017-07-24T15:53:50.279Z,40.00
2017-07-24T15:56:17.830Z,40.40
2017-07-24T15:58:45.386Z,41.20
2017-07-24T16:01:12.849Z,41.50
2017-07-24T16:03:40.418Z,40.80
2017-07-24T16:06:08.637Z,39.50
2017-07-24T16:08:36.134Z,39.60
2017-07-24T16:11:03.607Z,39.00
2017-07-24T16:13:31.052Z,39.40
2017-07-24T16:15:58.513Z,40.70
2017-07-24T16:18:25.964Z,39.60
2017-07-24T16:20:53.422Z,39.70
2017-07-24T16:23:20.877Z,39.90
2017-07-24T16:25:48.439Z,39.90
2017-07-24T16:28:15.911Z,40.70
2017-07-24T16:30:44.165Z,40.40
2017-07-24T16:33:11.620Z,40.30
2017-07-24T16:35:39.079Z,39.90
2017-07-24T16:38:06.552Z,39.90
2017-07-24T16:40:34.766Z,41.60
2017-07-24T16:43:02.251Z,41.60
2017-07-24T16:45:29.722Z,41.40
2017-07-24T16:47:57.172Z,41.10
2017-07-24T16:50:24.742Z,41.40
2017-07-24T16:52:52.298Z,41.40
2017-07-24T16:55:19.858Z,40.80
2017-07-24T16:57:47.417Z,40.70
2017-07-24T17:00:14.968Z,40.90
2017-07-24T17:02:42.530Z,41.00
2017-07-24T17:05:10.009Z,39.70
2017-07-24T17:07:38.282Z,40.30
2017-07-24T17:10:06.529Z,40.20
2017-07-24T17:12:34.006Z,40.20
2017-07-24T17:15:02.238Z,40.40
2017-07-24T17:17:29.721Z,40.70
2017-07-24T17:19:57.275Z,41.30
2017-07-24T17:22:24.833Z,41.50
2017-07-24T17:24:52.414Z,41.70
2017-07-24T17:27:20.734Z,42.10
2017-07-24T17:29:48.185Z,42.00
2017-07-24T17:32:15.648Z,42.30
2017-07-24T17:34:43.100Z,43.00
2017-07-24T17:37:10.600Z,43.10
2017-07-24T17:39:38.062Z,44.00
2017-07-24T17:42:05.609Z,44.20
2017-07-24T17:44:33.070Z,44.80
2017-07-24T17:47:00.529Z,45.10
2017-07-24T17:49:28.084Z,44.90
2017-07-24T17:51:55.654Z,44.90
2017-07-24T17:54:23.656Z,44.90
2017-07-24T17:56:51.248Z,45.70
2017-07-24T17:59:18.725Z,47.00
2017-07-24T18:01:46.298Z,48.50
2017-07-24T18:04:13.857Z,49.70
2017-07-24T18:06:41.400Z,51.30
2017-07-24T18:09:08.859Z,52.60
2017-07-24T18:11:36.426Z,54.40
2017-07-24T18:14:03.880Z,56.10
2017-07-24T18:16:31.328Z,57.40
2017-07-24T18:18:58.790Z,57.20
2017-07-24T18:21:26.354Z,58.20
2017-07-24T18:23:53.802Z,58.90
2017-07-24T18:26:21.286Z,59.40
2017-07-24T18:28:49.501Z,60.30
2017-07-24T18:31:16.993Z,60.20
2017-07-24T18:33:44.552Z,61.60
2017-07-24T18:36:12.022Z,60.50
2017-07-24T18:38:39.475Z,61.40
2017-07-24T18:41:07.013Z,59.80
2017-07-24T18:43:34.607Z,59.40
2017-07-24T18:46:02.145Z,59.60
2017-07-24T18:48:29.702Z,59.80
2017-07-24T18:50:57.148Z,61.40
2017-07-24T18:53:24.613Z,62.30
2017-07-24T18:55:52.178Z,61.50
2017-07-24T18:58:19.731Z,62.10
2017-07-24T19:00:47.294Z,62.20
2017-07-24T19:03:14.749Z,61.80
2017-07-24T19:05:42.202Z,62.80
2017-07-24T19:08:09.784Z,64.30
2017-07-24T19:10:38.027Z,64.70
2017-07-24T19:13:05.643Z,64.70
2017-07-24T19:15:33.144Z,66.40
2017-07-24T19:18:00.600Z,67.00
2017-07-24T19:20:28.075Z,67.00
2017-07-24T19:22:56.337Z,65.70
2017-07-24T19:25:23.960Z,65.60
2017-07-24T19:27:51.414Z,66.50
2017-07-24T19:30:18.882Z,66.90
2017-07-24T19:32:46.376Z,66.50
2017-07-24T19:35:13.938Z,66.70
2017-07-24T19:37:41.393Z,67.20
2017-07-24T19:40:08.949Z,66.70
2017-07-24T19:42:37.785Z,67.00
2017-07-24T19:45:06.477Z,67.50
2017-07-24T19:47:34.309Z,67.30
2017-07-24T19:50:02.557Z,67.10
2017-07-24T19:52:30.010Z,67.00
2017-07-24T19:54:57.468Z,67.00
2017-07-24T19:57:25.012Z,68.50
2017-07-24T19:59:52.591Z,68.60
2017-07-24T20:02:20.166Z,68.40
2017-07-24T20:04:47.708Z,69.10
2017-07-24T20:07:15.256Z,68.80
2017-07-24T20:09:42.714Z,68.60
2017-07-24T20:12:10.277Z,68.50
2017-07-24T20:14:37.727Z,68.60
2017-07-24T20:17:05.295Z,68.80
2017-07-24T20:19:32.762Z,68.20
2017-07-24T20:22:01.762Z,68.50
2017-07-24T20:24:29.306Z,68.80
2017-07-24T20:26:56.862Z,70.70
2017-07-24T20:29:24.338Z,70.30
2017-07-24T20:31:52.589Z,70.40
2017-07-24T20:34:20.044Z,70.20
2017-07-24T20:36:47.496Z,70.70
2017-07-24T20:39:14.975Z,71.30
2017-07-24T20:41:42.536Z,72.00
2017-07-24T20:44:10.091Z,72.00
2017-07-24T20:46:37.646Z,72.70
2017-07-24T20:49:05.197Z,72.70
2017-07-24T20:51:32.762Z,73.20
2017-07-24T20:54:00.240Z,73.80
2017-07-24T20:56:28.458Z,74.70
2017-07-24T20:58:55.946Z,74.60
2017-07-24T21:01:23.501Z,73.90
2017-07-24T21:03:51.085Z,73.00
2017-07-24T21:06:19.334Z,73.50
2017-07-24T21:08:46.790Z,73.30
2017-07-24T21:11:14.261Z,73.20
2017-07-24T21:13:41.709Z,74.00
2017-07-24T21:16:09.384Z,73.60
2017-07-24T21:18:37.642Z,72.80
2017-07-24T21:21:05.201Z,73.40
2017-07-24T21:23:32.771Z,73.50
2017-07-24T21:26:00.239Z,73.60
2017-07-24T21:28:28.493Z,74.40
2017-07-24T21:30:56.052Z,73.70
2017-07-24T21:33:23.611Z,74.40
2017-07-24T21:35:51.186Z,73.80
2017-07-24T21:38:19.437Z,72.90
2017-07-24T21:40:47.002Z,72.80
2017-07-24T21:43:15.283Z,73.60
2017-07-24T21:45:42.747Z,73.50
2017-07-24T21:48:10.297Z,74.10
2017-07-24T21:50:37.854Z,74.50
2017-07-24T21:53:05.313Z,73.40
2017-07-24T21:55:32.775Z,74.40
2017-07-24T21:58:00.322Z,74.20
2017-07-24T22:00:27.788Z,74.20
2017-07-24T22:02:55.334Z,74.20
2017-07-24T22:05:22.902Z,74.30
2017-07-24T22:07:50.388Z,74.90
2017-07-24T22:10:17.845Z,75.00
2017-07-24T22:12:45.390Z,75.50
2017-07-24T22:15:13.654Z,74.50
2017-07-24T22:17:41.898Z,74.60
2017-07-24T22:20:09.367Z,74.60
2017-07-24T22:22:36.852Z,75.10
2017-07-24T22:25:05.118Z,75.40
2017-07-24T22:27:32.670Z,75.30
2017-07-24T22:30:00.124Z,75.40
2017-07-24T22:32:27.685Z,76.20
2017-07-24T22:34:55.250Z,75.60
2017-07-24T22:37:22.797Z,75.70
2017-07-24T22:39:50.274Z,75.90
2017-07-24T22:42:18.506Z,76.30
2017-07-24T22:44:45.990Z,76.20
2017-07-24T22:47:13.458Z,76.00
2017-07-24T22:49:41.826Z,77.30
2017-07-24T22:52:09.307Z,76.80
2017-07-24T22:54:37.537Z,76.90
2017-07-24T22:57:04.999Z,76.90
2017-07-24T22:59:32.481Z,76.50
2017-07-24T23:02:00.753Z,77.00
2017-07-24T23:04:28.979Z,77.40
2017-07-24T23:06:56.488Z,77.50
2017-07-24T23:09:24.043Z,77.40
2017-07-24T23:11:51.510Z,77.40
2017-07-24T23:14:19.734Z,77.60
2017-07-24T23:16:47.230Z,77.60
2017-07-24T23:19:14.782Z,77.50
2017-07-24T23:21:42.339Z,77.20
2017-07-24T23:24:09.906Z,77.30
2017-07-24T23:26:37.377Z,77.00
2017-07-24T23:29:05.597Z,78.30
2017-07-24T23:31:33.091Z,78.10
2017-07-24T23:34:00.655Z,77.40
2017-07-24T23:36:28.887Z,77.60
2017-07-24T23:38:56.352Z,77.50
2017-07-24T23:41:23.838Z,77.90
2017-07-24T23:43:51.403Z,77.70
2017-07-24T23:46:19.629Z,79.00
2017-07-24T23:48:47.120Z,78.40
2017-07-24T23:51:14.598Z,77.90
2017-07-24T23:53:42.855Z,78.20
2017-07-24T23:56:10.423Z,78.10
2017-07-24T23:58:37.892Z,78.50
